createdAt,value
2018-12-12T00:02:04.958Z,53.00
2018-12-12T00:04:32.560Z,53.10
2018-12-12T00:07:00.472Z,52.90
2018-12-12T00:09:28.142Z,53.00
2018-12-12T00:11:55.700Z,52.90
2018-12-12T00:14:23.310Z,52.90
2018-12-12T00:16:50.816Z,53.00
2018-12-12T00:19:18.392Z,53.00
2018-12-12T00:21:45.998Z,53.10
2018-12-12T00:24:13.582Z,53.10
2018-12-12T00:26:41.170Z,52.80
2018-12-12T00:29:08.739Z,53.10
2018-12-12T00:31:36.345Z,53.30
2018-12-12T00:34:03.972Z,53.00
2018-12-12T00:36:31.505Z,53.00
2018-12-12T00:38:59.166Z,53.10
2018-12-12T00:41:27.844Z,52.80
2018-12-12T00:43:55.377Z,52.80
2018-12-12T00:46:22.939Z,52.70
2018-12-12T00:48:50.566Z,52.70
2018-12-12T00:51:18.247Z,52.70
2018-12-12T00:53:45.883Z,53.10
2018-12-12T00:56:13.410Z,52.80
2018-12-12T00:58:40.978Z,52.90
2018-12-12T01:01:08.542Z,52.90
2018-12-12T01:03:36.116Z,52.90
2018-12-12T01:06:03.690Z,52.90
2018-12-12T01:08:31.236Z,53.00
2018-12-12T01:11:04.542Z,52.80
2018-12-12T01:13:32.111Z,52.90
2018-12-12T01:15:59.658Z,53.20
2018-12-12T01:18:27.237Z,53.20
2018-12-12T01:20:54.903Z,53.20
2018-12-12T01:23:22.441Z,53.20
2018-12-12T01:25:50.058Z,53.20
2018-12-12T01:28:17.575Z,53.00
2018-12-12T01:30:45.173Z,53.20
2018-12-12T01:33:12.709Z,53.20
2018-12-12T01:35:40.249Z,53.20
2018-12-12T01:38:07.813Z,53.30
2018-12-12T01:40:35.363Z,53.00
2018-12-12T01:43:02.961Z,53.50
2018-12-12T01:45:30.485Z,53.20
2018-12-12T01:47:58.047Z,53.20
2018-12-12T01:50:25.673Z,53.20
2018-12-12T01:52:53.199Z,53.40
2018-12-12T01:55:20.884Z,53.40
2018-12-12T01:57:48.494Z,53.30
2018-12-12T02:00:16.058Z,53.40
2018-12-12T02:02:43.635Z,53.40
2018-12-12T02:05:11.209Z,53.50
2018-12-12T02:07:38.791Z,53.30
2018-12-12T02:10:06.922Z,53.00
2018-12-12T02:12:34.653Z,53.30
2018-12-12T02:15:02.246Z,53.30
2018-12-12T02:17:29.837Z,53.30
2018-12-12T02:19:57.362Z,53.70
2018-12-12T02:22:24.935Z,54.00
2018-12-12T02:24:52.495Z,54.20
2018-12-12T02:27:20.079Z,54.30
2018-12-12T02:29:47.754Z,54.40
2018-12-12T02:32:15.286Z,54.50
2018-12-12T02:34:43.037Z,54.10
2018-12-12T02:37:10.633Z,54.80
2018-12-12T02:39:38.164Z,54.40
2018-12-12T02:42:05.748Z,53.80
2018-12-12T02:44:33.278Z,54.20
2018-12-12T02:47:00.826Z,54.20
2018-12-12T02:49:29.326Z,54.10
2018-12-12T02:51:56.919Z,54.10
2018-12-12T02:54:24.484Z,54.00
2018-12-12T02:56:52.019Z,54.00
2018-12-12T02:59:19.562Z,54.30
2018-12-12T03:01:47.146Z,54.20
2018-12-12T03:04:14.677Z,54.00
2018-12-12T03:06:42.248Z,54.00
2018-12-12T03:09:09.781Z,53.90
2018-12-12T03:14:53.170Z,54.00
2018-12-12T03:17:20.714Z,53.40
2018-12-12T03:19:48.247Z,53.40
2018-12-12T03:22:15.814Z,53.50
2018-12-12T03:24:43.425Z,53.60
2018-12-12T03:27:11.070Z,53.60
2018-12-12T03:29:38.587Z,53.80
2018-12-12T03:32:06.123Z,53.70
2018-12-12T03:34:33.742Z,53.50
2018-12-12T03:37:01.421Z,53.90
2018-12-12T03:39:28.960Z,53.70
2018-12-12T03:41:56.581Z,53.60
2018-12-12T03:44:24.123Z,53.70
2018-12-12T03:46:51.723Z,53.70
2018-12-12T03:49:19.276Z,53.90
2018-12-12T03:51:46.905Z,53.80
2018-12-12T03:54:14.426Z,53.80
2018-12-12T03:56:41.998Z,53.80
2018-12-12T03:59:09.586Z,53.60
2018-12-12T04:01:37.271Z,53.80
2018-12-12T04:04:05.807Z,54.00
2018-12-12T04:06:33.407Z,54.40
2018-12-12T04:09:00.979Z,54.50
2018-12-12T04:11:28.520Z,54.50
2018-12-12T04:13:56.099Z,54.50
2018-12-12T04:16:23.930Z,54.50
2018-12-12T04:18:51.710Z,54.30
2018-12-12T04:21:19.273Z,54.30
2018-12-12T04:23:47.788Z,54.10
2018-12-12T04:26:15.423Z,54.40
2018-12-12T04:28:42.991Z,54.50
2018-12-12T04:31:10.724Z,54.30
2018-12-12T04:33:38.407Z,54.50
2018-12-12T04:36:06.095Z,54.30
2018-12-12T04:38:33.661Z,54.10
2018-12-12T04:41:01.188Z,55.00
2018-12-12T04:43:28.789Z,54.10
2018-12-12T04:45:56.399Z,54.30
2018-12-12T04:48:23.942Z,53.90
2018-12-12T04:50:51.486Z,53.90
2018-12-12T04:53:19.047Z,54.30
2018-12-12T04:55:46.580Z,54.20
2018-12-12T04:58:14.167Z,53.90
2018-12-12T05:00:41.728Z,53.90
2018-12-12T05:03:09.289Z,54.20
2018-12-12T05:05:36.965Z,53.90
2018-12-12T05:08:04.473Z,54.30
2018-12-12T05:10:32.030Z,53.90
2018-12-12T05:12:59.583Z,54.10
2018-12-12T05:15:27.114Z,54.20
2018-12-12T05:17:54.646Z,54.00
2018-12-12T05:20:22.217Z,54.10
2018-12-12T05:22:49.788Z,53.80
2018-12-12T05:25:17.316Z,53.90
2018-12-12T05:27:44.875Z,53.90
2018-12-12T05:30:12.473Z,54.10
2018-12-12T05:32:40.016Z,54.00
2018-12-12T05:35:07.551Z,53.90
2018-12-12T05:37:35.205Z,54.20
2018-12-12T05:40:03.047Z,54.20
2018-12-12T05:42:30.661Z,54.00
2018-12-12T05:44:58.304Z,54.20
2018-12-12T05:47:25.872Z,54.10
2018-12-12T05:49:53.434Z,54.30
2018-12-12T05:52:21.001Z,54.20
2018-12-12T05:54:48.575Z,54.50
2018-12-12T05:57:16.105Z,54.10
2018-12-12T05:59:43.635Z,54.00
2018-12-12T06:02:11.171Z,54.00
2018-12-12T06:04:39.725Z,54.00
2018-12-12T06:07:07.955Z,54.30
2018-12-12T06:09:35.474Z,54.00
2018-12-12T06:12:03.058Z,53.80
2018-12-12T06:14:30.716Z,53.90
2018-12-12T06:16:58.312Z,54.10
2018-12-12T06:19:26.021Z,54.00
2018-12-12T06:21:53.618Z,54.20
2018-12-12T06:24:21.198Z,54.30
2018-12-12T06:26:48.894Z,54.00
2018-12-12T06:29:16.437Z,54.00
2018-12-12T06:31:43.974Z,54.00
2018-12-12T06:34:11.705Z,54.10
2018-12-12T06:36:39.311Z,53.80
2018-12-12T06:39:07.178Z,54.20
2018-12-12T06:41:34.927Z,54.10
2018-12-12T06:44:02.498Z,53.80
2018-12-12T06:46:30.019Z,54.20
2018-12-12T06:48:57.578Z,54.50
2018-12-12T06:51:25.133Z,54.30
2018-12-12T06:53:52.664Z,54.50
2018-12-12T06:56:20.281Z,54.40
2018-12-12T06:58:47.824Z,54.40
2018-12-12T07:01:15.394Z,54.20
2018-12-12T07:03:42.937Z,54.00
2018-12-12T07:06:10.607Z,54.10
2018-12-12T07:08:38.368Z,54.30
2018-12-12T07:11:05.949Z,54.20
2018-12-12T07:13:35.779Z,54.10
2018-12-12T07:16:03.204Z,54.20
2018-12-12T07:18:30.722Z,54.00
2018-12-12T07:20:58.278Z,54.10
2018-12-12T07:23:26.003Z,54.10
2018-12-12T07:25:53.564Z,54.20
2018-12-12T07:28:21.128Z,54.30
2018-12-12T07:30:48.694Z,54.50
2018-12-12T07:33:17.208Z,54.50
2018-12-12T07:35:44.846Z,54.40
2018-12-12T07:38:12.462Z,54.60
2018-12-12T07:40:40.022Z,54.90
2018-12-12T07:43:07.554Z,54.50
2018-12-12T07:45:35.108Z,54.50
2018-12-12T07:48:02.701Z,54.30
2018-12-12T07:50:30.242Z,54.40
2018-12-12T07:52:57.873Z,54.10
2018-12-12T07:55:25.467Z,54.10
2018-12-12T07:57:53.039Z,53.90
2018-12-12T08:00:20.783Z,54.00
2018-12-12T08:02:48.365Z,54.00
2018-12-12T08:05:15.968Z,53.70
2018-12-12T08:07:43.596Z,53.70
2018-12-12T08:10:11.706Z,53.90
2018-12-12T08:12:39.339Z,53.90
2018-12-12T08:15:06.954Z,53.90
2018-12-12T08:17:34.529Z,53.80
2018-12-12T08:20:02.193Z,53.50
2018-12-12T08:22:29.722Z,53.90
2018-12-12T08:24:57.469Z,53.80
2018-12-12T08:27:25.061Z,54.00
2018-12-12T08:29:52.619Z,54.00
2018-12-12T08:32:20.179Z,53.90
2018-12-12T08:34:48.124Z,54.20
2018-12-12T08:37:15.798Z,54.10
2018-12-12T08:39:43.316Z,53.80
2018-12-12T08:42:10.857Z,53.80
2018-12-12T08:44:38.583Z,53.60
2018-12-12T08:47:06.094Z,53.60
2018-12-12T08:49:33.690Z,53.90
2018-12-12T08:52:01.294Z,53.90
2018-12-12T08:54:28.910Z,54.00
2018-12-12T08:56:57.040Z,53.90
2018-12-12T08:59:24.586Z,54.10
2018-12-12T09:01:52.169Z,54.20
2018-12-12T09:04:19.750Z,54.00
2018-12-12T09:06:47.301Z,54.00
2018-12-12T09:09:14.842Z,53.90
2018-12-12T09:11:42.397Z,53.90
2018-12-12T09:14:10.091Z,54.00
2018-12-12T09:16:37.651Z,53.80
2018-12-12T09:19:05.195Z,53.80
2018-12-12T09:21:32.825Z,53.50
2018-12-12T09:24:00.462Z,53.60
2018-12-12T09:26:28.005Z,53.40
2018-12-12T09:28:55.578Z,53.10
2018-12-12T09:31:23.186Z,53.20
2018-12-12T09:33:50.723Z,53.40
2018-12-12T09:36:18.266Z,53.30
2018-12-12T09:38:45.842Z,53.40
2018-12-12T09:41:13.409Z,53.40
2018-12-12T09:43:41.171Z,53.10
2018-12-12T09:46:08.774Z,53.10
2018-12-12T09:48:36.303Z,53.10
2018-12-12T09:51:07.275Z,52.90
2018-12-12T09:53:33.496Z,52.90
2018-12-12T09:56:01.054Z,52.60
2018-12-12T09:58:28.586Z,52.50
2018-12-12T10:00:56.173Z,52.40
2018-12-12T10:03:23.741Z,52.50
2018-12-12T10:05:51.369Z,52.20
2018-12-12T10:08:18.911Z,52.90
2018-12-12T10:10:46.628Z,52.70
2018-12-12T10:13:14.271Z,52.40
2018-12-12T10:15:41.898Z,52.50
2018-12-12T10:18:09.524Z,52.50
2018-12-12T10:20:37.090Z,52.10
2018-12-12T10:23:04.639Z,52.30
2018-12-12T10:25:32.208Z,52.50
2018-12-12T10:28:00.913Z,52.50
2018-12-12T10:30:28.472Z,52.80
2018-12-12T10:32:56.204Z,52.90
2018-12-12T10:35:23.742Z,52.60
2018-12-12T10:37:51.297Z,52.80
2018-12-12T10:40:18.820Z,52.50
2018-12-12T10:42:46.382Z,52.10
2018-12-12T10:45:14.050Z,52.30
2018-12-12T10:47:41.603Z,52.30
2018-12-12T10:50:09.125Z,52.00
2018-12-12T10:52:36.703Z,52.20
2018-12-12T10:55:05.254Z,52.00
2018-12-12T10:57:32.845Z,51.90
2018-12-12T11:00:00.361Z,52.00
2018-12-12T11:02:30.306Z,51.80
2018-12-12T11:04:58.176Z,51.30
2018-12-12T11:07:25.728Z,51.30
2018-12-12T11:09:53.414Z,51.20
2018-12-12T11:12:20.958Z,51.40
2018-12-12T11:14:48.533Z,51.70
2018-12-12T11:17:16.193Z,51.70
2018-12-12T11:19:43.767Z,51.50
2018-12-12T11:22:11.338Z,51.80
2018-12-12T11:24:38.887Z,51.60
2018-12-12T11:27:06.487Z,51.60
2018-12-12T11:29:34.021Z,51.40
2018-12-12T11:32:01.600Z,51.60
2018-12-12T11:34:29.181Z,51.80
2018-12-12T11:36:56.783Z,50.90
2018-12-12T11:39:24.344Z,50.80
2018-12-12T11:41:51.889Z,51.10
2018-12-12T11:44:19.534Z,51.20
2018-12-12T11:46:47.106Z,51.20
2018-12-12T11:49:14.638Z,51.00
2018-12-12T11:51:42.204Z,51.00
2018-12-12T11:54:09.748Z,51.20
2018-12-12T11:56:37.311Z,51.00
2018-12-12T11:59:04.890Z,50.90
2018-12-12T12:01:32.471Z,50.90
2018-12-12T12:04:00.161Z,51.10
2018-12-12T12:06:27.672Z,51.00
2018-12-12T12:08:55.278Z,50.90
2018-12-12T12:11:22.829Z,50.80
2018-12-12T12:13:50.360Z,51.00
2018-12-12T12:16:18.072Z,50.90
2018-12-12T12:18:45.618Z,50.70
2018-12-12T12:21:13.182Z,50.60
2018-12-12T12:23:40.789Z,50.50
2018-12-12T12:26:08.362Z,50.50
2018-12-12T12:28:35.898Z,50.40
2018-12-12T12:31:03.445Z,50.60
2018-12-12T12:33:31.018Z,50.70
2018-12-12T12:35:58.619Z,50.50
2018-12-12T12:38:26.225Z,50.20
2018-12-12T12:40:53.778Z,50.20
2018-12-12T12:43:21.338Z,50.20
2018-12-12T12:45:48.922Z,50.00
2018-12-12T12:48:16.478Z,50.00
2018-12-12T12:50:44.244Z,49.70
2018-12-12T12:53:11.930Z,49.50
2018-12-12T12:55:39.494Z,49.60
2018-12-12T12:58:07.026Z,49.50
2018-12-12T13:00:34.689Z,49.40
2018-12-12T13:03:02.334Z,49.50
2018-12-12T13:05:29.871Z,49.60
2018-12-12T13:07:57.437Z,49.40
2018-12-12T13:10:25.385Z,49.30
2018-12-12T13:12:53.241Z,49.40
2018-12-12T13:15:21.103Z,49.60
2018-12-12T13:17:48.664Z,49.50
2018-12-12T13:20:16.216Z,49.60
2018-12-12T13:22:43.831Z,49.80
2018-12-12T13:25:11.486Z,49.50
2018-12-12T13:27:39.007Z,49.40
2018-12-12T13:30:06.731Z,49.70
2018-12-12T13:32:34.303Z,49.80
2018-12-12T13:35:01.859Z,49.50
2018-12-12T13:37:29.521Z,49.90
2018-12-12T13:39:57.235Z,50.00
2018-12-12T13:42:24.849Z,49.80
2018-12-12T13:44:52.384Z,49.80
2018-12-12T13:47:20.010Z,49.60
2018-12-12T13:49:47.619Z,49.50
2018-12-12T13:52:15.204Z,49.40
2018-12-12T13:54:42.775Z,49.10
2018-12-12T14:03:57.073Z,49.30
2018-12-12T14:06:24.743Z,49.70
2018-12-12T14:08:52.395Z,49.90
2018-12-12T14:11:20.094Z,50.40
2018-12-12T14:13:47.670Z,49.70
2018-12-12T14:16:15.338Z,49.40
2018-12-12T14:18:43.063Z,49.30
2018-12-12T14:21:10.716Z,49.50
2018-12-12T14:23:38.281Z,49.30
2018-12-12T14:26:05.912Z,49.30
2018-12-12T14:28:33.567Z,49.20
2018-12-12T14:31:01.244Z,49.20
2018-12-12T14:33:28.900Z,49.20
2018-12-12T14:36:01.068Z,49.20
2018-12-12T14:38:26.266Z,49.20
2018-12-12T14:40:53.955Z,49.10
2018-12-12T14:43:21.606Z,49.30
2018-12-12T14:45:49.190Z,49.20
2018-12-12T14:48:16.819Z,49.40
2018-12-12T14:50:44.460Z,49.50
2018-12-12T14:53:12.077Z,49.60
2018-12-12T14:55:39.656Z,49.50
2018-12-12T14:58:07.246Z,49.70
2018-12-12T15:00:34.823Z,49.70
2018-12-12T15:03:02.367Z,49.70
2018-12-12T15:05:29.918Z,49.80
2018-12-12T15:07:57.506Z,49.80
2018-12-12T15:10:25.048Z,49.60
2018-12-12T15:12:52.622Z,49.90
2018-12-12T15:15:20.209Z,49.60
2018-12-12T15:17:47.794Z,49.50
2018-12-12T15:20:15.358Z,49.50
2018-12-12T15:22:42.887Z,49.40
2018-12-12T15:25:10.439Z,49.50
2018-12-12T15:27:38.012Z,49.40
2018-12-12T15:30:06.169Z,49.90
2018-12-12T15:32:33.766Z,49.80
2018-12-12T15:35:01.348Z,49.60
2018-12-12T15:37:28.974Z,49.60
2018-12-12T15:39:56.478Z,50.00
2018-12-12T15:42:24.102Z,50.10
2018-12-12T15:44:51.642Z,49.80
2018-12-12T15:47:19.184Z,49.80
2018-12-12T15:49:46.786Z,49.90
2018-12-12T15:52:14.458Z,50.10
2018-12-12T15:54:43.002Z,50.10
2018-12-12T15:57:10.544Z,50.00
2018-12-12T15:59:38.095Z,49.90
2018-12-12T16:02:05.761Z,50.10
2018-12-12T16:04:33.326Z,50.00
2018-12-12T16:07:00.851Z,50.20
2018-12-12T16:09:28.520Z,50.00
2018-12-12T16:11:56.058Z,50.20
2018-12-12T16:14:23.595Z,50.20
2018-12-12T16:16:51.144Z,50.30
2018-12-12T16:19:18.709Z,49.70
2018-12-12T16:21:46.465Z,49.70
2018-12-12T16:24:14.003Z,49.80
2018-12-12T16:26:41.626Z,49.80
2018-12-12T16:29:09.136Z,49.90
2018-12-12T16:31:36.722Z,49.60
2018-12-12T16:34:04.439Z,49.60
2018-12-12T16:36:32.043Z,49.60
2018-12-12T16:38:59.728Z,49.70
2018-12-12T16:41:27.316Z,49.90
2018-12-12T16:43:54.902Z,49.70
2018-12-12T16:46:22.637Z,50.00
2018-12-12T16:48:50.427Z,49.70
2018-12-12T16:51:18.003Z,50.00
2018-12-12T16:53:45.717Z,50.00
2018-12-12T16:56:13.456Z,49.70
2018-12-12T16:58:42.076Z,49.50
2018-12-12T17:01:09.821Z,49.40
2018-12-12T17:03:37.507Z,49.30
2018-12-12T17:06:05.137Z,49.30
2018-12-12T17:08:32.772Z,49.00
2018-12-12T17:11:00.338Z,48.80
2018-12-12T17:13:27.961Z,48.80
2018-12-12T17:15:55.569Z,49.20
2018-12-12T17:18:23.368Z,48.90
2018-12-12T17:20:51.088Z,48.90
2018-12-12T17:23:18.751Z,49.10
2018-12-12T17:25:46.418Z,48.70
2018-12-12T17:28:14.089Z,49.00
2018-12-12T17:30:42.168Z,48.80
2018-12-12T17:33:09.820Z,49.00
2018-12-12T17:35:37.579Z,48.90
2018-12-12T17:38:05.130Z,48.90
2018-12-12T17:40:32.733Z,49.10
2018-12-12T17:43:00.277Z,48.80
2018-12-12T17:45:28.033Z,48.90
2018-12-12T17:47:55.724Z,49.00
2018-12-12T17:50:23.352Z,49.30
2018-12-12T17:52:50.973Z,49.10
2018-12-12T17:55:18.518Z,49.10
2018-12-12T17:57:46.139Z,48.80
2018-12-12T18:00:13.737Z,49.00
2018-12-12T18:02:41.425Z,48.70
2018-12-12T18:05:15.078Z,49.30
2018-12-12T18:07:38.594Z,49.20
2018-12-12T18:10:06.182Z,49.40
2018-12-12T18:12:33.760Z,48.80
2018-12-12T18:15:01.364Z,49.10
2018-12-12T18:17:28.927Z,49.10
2018-12-12T18:19:56.545Z,49.10
2018-12-12T18:22:24.166Z,49.20
2018-12-12T18:24:51.726Z,49.10
2018-12-12T18:27:20.271Z,49.40
2018-12-12T18:29:47.814Z,49.80
2018-12-12T18:32:15.477Z,49.70
2018-12-12T18:34:43.059Z,49.80
2018-12-12T18:37:10.661Z,49.60
2018-12-12T18:39:38.304Z,49.50
2018-12-12T18:42:05.906Z,49.50
2018-12-12T18:44:33.599Z,49.20
2018-12-12T18:47:01.481Z,49.50
2018-12-12T18:49:29.134Z,49.40
2018-12-12T18:51:56.751Z,49.40
2018-12-12T18:54:24.365Z,49.20
2018-12-12T18:56:52.021Z,49.30
2018-12-12T18:59:19.606Z,49.50
2018-12-12T19:01:47.666Z,49.10
2018-12-12T19:04:15.249Z,49.10
2018-12-12T19:06:42.898Z,48.90
2018-12-12T19:09:10.477Z,49.30
2018-12-12T19:11:44.182Z,48.90
2018-12-12T19:14:07.923Z,49.20
2018-12-12T19:16:35.526Z,49.40
2018-12-12T19:19:03.082Z,49.20
2018-12-12T19:21:30.691Z,49.20
2018-12-12T19:23:58.255Z,49.50
2018-12-12T19:26:25.916Z,49.50
2018-12-12T19:28:53.492Z,49.40
2018-12-12T19:31:22.064Z,49.50
2018-12-12T19:33:49.682Z,49.80
2018-12-12T19:36:17.405Z,49.60
2018-12-12T19:38:44.953Z,49.90
2018-12-12T19:41:12.910Z,49.90
2018-12-12T19:43:40.448Z,49.80
2018-12-12T19:46:08.223Z,49.70
2018-12-12T19:48:35.911Z,50.00
2018-12-12T19:51:03.470Z,50.10
2018-12-12T19:53:31.034Z,49.80
2018-12-12T19:55:58.911Z,49.80
2018-12-12T19:58:26.469Z,49.90
2018-12-12T20:00:55.143Z,50.10
2018-12-12T20:03:22.755Z,50.00
2018-12-12T20:05:50.305Z,50.00
2018-12-12T20:08:17.868Z,50.10
2018-12-12T20:10:45.514Z,50.20
2018-12-12T20:13:13.221Z,50.30
2018-12-12T20:15:44.584Z,50.30
2018-12-12T20:18:12.254Z,50.50
2018-12-12T20:23:09.853Z,50.70
2018-12-12T20:25:37.451Z,50.70
2018-12-12T20:28:05.147Z,50.70
2018-12-12T20:30:35.478Z,50.90
2018-12-12T20:33:02.616Z,50.80
2018-12-12T20:35:30.314Z,51.00
2018-12-12T20:37:57.865Z,50.80
2018-12-12T20:40:25.546Z,51.10
2018-12-12T20:42:53.091Z,51.00
2018-12-12T20:45:20.635Z,50.90
2018-12-12T20:47:48.246Z,51.20
2018-12-12T20:50:15.855Z,51.30
2018-12-12T20:52:43.442Z,51.10
2018-12-12T20:55:11.129Z,51.00
2018-12-12T20:57:38.696Z,51.00
2018-12-12T21:00:06.374Z,51.10
2018-12-12T21:02:34.085Z,51.20
2018-12-12T21:05:01.669Z,51.20
2018-12-12T21:07:29.238Z,51.60
2018-12-12T21:09:56.799Z,51.50
2018-12-12T21:12:24.673Z,51.40
2018-12-12T21:14:52.211Z,51.60
2018-12-12T21:17:19.734Z,51.60
2018-12-12T21:19:47.298Z,51.60
2018-12-12T21:22:14.884Z,51.50
2018-12-12T21:24:42.661Z,51.60
2018-12-12T21:27:10.344Z,51.50
2018-12-12T21:29:37.920Z,51.40
2018-12-12T21:32:05.903Z,51.30
2018-12-12T21:34:33.504Z,51.20
2018-12-12T21:37:01.046Z,51.50
2018-12-12T21:39:28.716Z,51.20
2018-12-12T21:41:56.286Z,51.30
2018-12-12T21:44:23.813Z,51.20
2018-12-12T21:46:51.526Z,51.30
2018-12-12T21:49:19.083Z,51.20
2018-12-12T21:51:47.015Z,51.10
2018-12-12T21:54:14.749Z,51.00
2018-12-12T21:56:42.273Z,50.90
2018-12-12T21:59:10.159Z,51.00
2018-12-12T22:01:37.709Z,51.20
2018-12-12T22:04:05.229Z,51.10
2018-12-12T22:06:32.800Z,51.00
2018-12-12T22:09:00.382Z,51.30
2018-12-12T22:11:27.938Z,51.20
2018-12-12T22:13:55.696Z,51.10
2018-12-12T22:16:23.262Z,51.00
2018-12-12T22:18:50.794Z,51.50
2018-12-12T22:21:18.415Z,51.50
2018-12-12T22:23:45.956Z,51.70
2018-12-12T22:26:14.025Z,51.70
2018-12-12T22:28:41.566Z,51.90
2018-12-12T22:31:09.231Z,52.00
2018-12-12T22:33:37.218Z,52.40
2018-12-12T22:36:04.750Z,51.90
2018-12-12T22:38:32.474Z,51.90
2018-12-12T22:41:00.170Z,52.10
2018-12-12T22:43:27.885Z,51.70
2018-12-12T22:45:57.424Z,51.80
2018-12-12T22:48:25.086Z,52.10
2018-12-12T22:50:52.682Z,51.80
2018-12-12T22:53:20.240Z,51.80
2018-12-12T22:55:47.795Z,51.90
2018-12-12T22:58:15.448Z,51.80
2018-12-12T23:00:45.280Z,51.70
2018-12-12T23:03:12.898Z,51.70
2018-12-12T23:05:40.440Z,51.80
2018-12-12T23:08:08.190Z,51.80
2018-12-12T23:10:35.750Z,51.60
2018-12-12T23:13:03.278Z,51.90
2018-12-12T23:15:30.852Z,51.80
2018-12-12T23:17:58.388Z,52.20
2018-12-12T23:20:26.302Z,52.00
2018-12-12T23:22:53.830Z,52.50
2018-12-12T23:25:21.360Z,52.30
2018-12-12T23:27:48.985Z,52.20
2018-12-12T23:30:16.567Z,52.10
2018-12-12T23:32:44.105Z,52.40
2018-12-12T23:35:11.778Z,52.00
2018-12-12T23:37:39.652Z,52.10
2018-12-12T23:40:07.383Z,52.30
2018-12-12T23:42:34.955Z,52.00
2018-12-12T23:45:02.558Z,52.70
2018-12-12T23:47:30.132Z,52.20
2018-12-12T23:49:57.879Z,52.00
2018-12-12T23:52:25.456Z,52.10
2018-12-12T23:54:52.995Z,52.30
2018-12-12T23:57:20.682Z,52.60
2018-12-12T23:59:48.344Z,52.60
